Time;durP1;ratioP1;P1;durP2;ratioP2;P2;SDS_P1;SDS_P2;PMS_P1;PMS_P2;Temp;Humidity;BMP_temperature;BMP_pressure;BME280_temperature;BME280_humidity;BME280_pressure;Samples;Min_cycle;Max_cycle;Signal;HPM_P1;HPM_P2
2021/12/24 00:00:59;;;;;;;6.78;6.18;;;-0.30;99.90;;;;;;5026825;28;20207;-76
2021/12/24 00:03:26;;;;;;;6.95;6.35;;;-0.30;99.90;;;;;;5027494;28;20796;-78
2021/12/24 00:05:53;;;;;;;7.07;6.38;;;-0.30;99.90;;;;;;5024585;28;20199;-78
2021/12/24 00:08:20;;;;;;;7.53;6.90;;;-0.30;99.90;;;;;;5023124;28;20220;-77
2021/12/24 00:10:56;;;;;;;6.68;6.10;;;-0.30;99.90;;;;;;5027974;28;20601;-78
2021/12/24 00:13:25;;;;;;;6.63;6.10;;;-0.30;99.90;;;;;;5027102;28;20292;-77
2021/12/24 00:16:01;;;;;;;7.60;6.88;;;-0.20;99.90;;;;;;5024148;28;20202;-76
2021/12/24 00:18:37;;;;;;;7.68;6.97;;;-0.30;99.90;;;;;;5026743;28;20253;-76
2021/12/24 00:35:11;;;;;;;6.45;5.88;;;-0.50;99.90;;;;;;5024652;28;20270;-77
2021/12/24 00:37:38;;;;;;;7.15;6.45;;;-0.50;99.90;;;;;;5021957;28;20943;-77
2021/12/24 00:40:13;;;;;;;6.40;5.88;;;-0.50;99.90;;;;;;5025798;28;20260;-75
2021/12/24 00:42:44;;;;;;;6.70;6.10;;;-0.40;99.90;;;;;;5024936;28;20290;-75
2021/12/24 00:45:14;;;;;;;7.05;6.43;;;-0.50;99.90;;;;;;5023690;28;20289;-75
2021/12/24 00:47:41;;;;;;;6.47;5.88;;;-0.50;99.90;;;;;;5025154;28;20196;-78
2021/12/24 00:50:14;;;;;;;7.35;6.75;;;-0.50;99.90;;;;;;5052793;23;20231;-73
2021/12/24 00:52:49;;;;;;;6.60;6.00;;;-0.50;99.90;;;;;;5040650;28;20206;-73
2021/12/24 00:55:17;;;;;;;7.10;6.50;;;-0.50;99.90;;;;;;5043045;28;20313;-73
2021/12/24 00:57:45;;;;;;;6.90;6.40;;;-0.50;99.90;;;;;;5053229;28;20205;-74
2021/12/24 01:00:17;;;;;;;5.75;5.32;;;-0.50;99.90;;;;;;5041063;28;20225;-73
2021/12/24 01:02:45;;;;;;;7.55;6.85;;;-0.50;99.90;;;;;;5038164;28;20249;-73
2021/12/24 01:05:13;;;;;;;6.57;5.90;;;-0.50;99.90;;;;;;5030740;28;20215;-72
2021/12/24 01:07:41;;;;;;;6.72;6.10;;;-0.50;99.90;;;;;;5034483;28;20218;-74
2021/12/24 01:10:09;;;;;;;7.47;6.78;;;-0.50;99.90;;;;;;5033594;28;20269;-73
2021/12/24 01:12:36;;;;;;;7.72;7.03;;;-0.50;99.90;;;;;;5037109;28;20269;-74
2021/12/24 01:15:06;;;;;;;7.18;6.57;;;-0.50;99.90;;;;;;5037560;28;20216;-73
2021/12/24 01:17:41;;;;;;;6.97;6.38;;;-0.50;99.90;;;;;;5037955;28;20207;-73
2021/12/24 01:20:19;;;;;;;7.30;6.70;;;-0.60;99.90;;;;;;5050089;28;20283;-74
2021/12/24 01:25:51;;;;;;;6.53;6.03;;;-0.60;99.90;;;;;;4963162;28;20252;-74
2021/12/24 01:39:24;;;;;;;7.53;6.93;;;-0.70;99.90;;;;;;5034468;28;20389;-73
2021/12/24 01:44:38;;;;;;;7.68;6.95;;;-0.80;99.90;;;;;;5036618;28;20711;-73
2021/12/24 01:47:07;;;;;;;6.93;6.43;;;-0.80;99.90;;;;;;5036686;28;20191;-73
2021/12/24 01:49:35;;;;;;;6.32;5.75;;;-0.90;99.90;;;;;;5040166;28;20214;-73
2021/12/24 01:52:04;;;;;;;6.82;6.32;;;-0.90;99.90;;;;;;5036543;28;20293;-73
2021/12/24 01:54:31;;;;;;;7.45;6.82;;;-0.90;99.90;;;;;;5040496;28;20229;-74
2021/12/24 01:56:58;;;;;;;6.85;6.25;;;-0.90;99.90;;;;;;5039485;28;20195;-72
2021/12/24 01:59:26;;;;;;;6.32;5.78;;;-0.90;99.90;;;;;;5038547;28;20283;-73
2021/12/24 02:01:53;;;;;;;6.47;5.97;;;-0.90;99.90;;;;;;5043011;28;20260;-74
2021/12/24 02:04:21;;;;;;;6.82;6.32;;;-0.90;99.90;;;;;;5043111;28;20222;-73
2021/12/24 02:06:50;;;;;;;6.07;5.60;;;-0.90;99.90;;;;;;5041047;28;20206;-73
2021/12/24 02:09:17;;;;;;;6.72;6.10;;;-0.80;99.90;;;;;;5043792;28;20260;-73
2021/12/24 02:11:45;;;;;;;7.10;6.53;;;-0.80;99.90;;;;;;5038937;28;20266;-73
2021/12/24 02:14:15;;;;;;;6.68;6.13;;;-0.90;99.90;;;;;;5058063;28;20253;-73
2021/12/24 02:17:09;;;;;;;6.78;6.28;;;-0.90;99.90;;;;;;5038939;28;20210;-73
2021/12/24 02:30:34;;;;;;;6.25;5.75;;;-0.90;99.90;;;;;;5036240;28;20222;-74
2021/12/24 02:33:03;;;;;;;6.28;5.75;;;-1.00;99.90;;;;;;5035144;28;20206;-74
2021/12/24 02:35:30;;;;;;;6.85;6.35;;;-0.90;99.90;;;;;;5034976;28;20706;-74
2021/12/24 02:38:00;;;;;;;7.05;6.30;;;-1.00;99.90;;;;;;5035459;28;20199;-74
2021/12/24 02:40:27;;;;;;;6.55;6.03;;;-0.90;99.90;;;;;;5038672;28;20223;-75
2021/12/24 02:42:56;;;;;;;6.93;6.43;;;-0.90;99.90;;;;;;5038458;28;20269;-73
2021/12/24 02:45:25;;;;;;;7.03;6.43;;;-0.90;99.90;;;;;;5033040;28;20685;-73
2021/12/24 02:48:12;;;;;;;5.80;5.40;;;-0.90;99.90;;;;;;5035879;28;20199;-74
2021/12/24 02:56:13;;;;;;;6.85;6.18;;;-0.90;99.90;;;;;;5040434;28;20226;-73
2021/12/24 02:58:42;;;;;;;7.15;6.55;;;-0.90;99.90;;;;;;5036669;28;20208;-74
2021/12/24 03:01:11;;;;;;;6.28;5.78;;;-0.90;99.90;;;;;;5037518;28;20706;-73
2021/12/24 03:03:38;;;;;;;5.70;5.30;;;-0.90;99.90;;;;;;5034679;28;20211;-73
2021/12/24 03:06:06;;;;;;;6.35;5.80;;;-0.90;99.90;;;;;;5035130;28;20242;-75
2021/12/24 03:08:35;;;;;;;6.22;5.63;;;-0.90;99.90;;;;;;5048938;28;20658;-72
2021/12/24 03:11:02;;;;;;;6.70;6.10;;;-0.90;99.90;;;;;;5032784;28;20230;-73
2021/12/24 03:13:30;;;;;;;7.88;7.10;;;-0.90;99.90;;;;;;5034653;28;20195;-74
2021/12/24 03:15:59;;;;;;;7.30;6.70;;;-0.90;99.90;;;;;;5036725;28;20264;-75
2021/12/24 03:18:29;;;;;;;5.57;5.18;;;-1.00;99.90;;;;;;5040648;28;20203;-73
2021/12/24 03:21:04;;;;;;;6.68;6.18;;;-1.00;99.90;;;;;;5036560;28;20853;-73
2021/12/24 03:23:40;;;;;;;5.78;5.38;;;-1.00;99.90;;;;;;5037067;28;20206;-76
2021/12/24 03:26:11;;;;;;;6.65;6.05;;;-1.00;99.90;;;;;;5035825;28;20222;-73
2021/12/24 03:28:38;;;;;;;6.32;5.82;;;-1.00;99.90;;;;;;5037615;28;20298;-73
2021/12/24 03:31:06;;;;;;;5.78;5.38;;;-1.00;99.90;;;;;;5039253;28;20222;-73
2021/12/24 03:33:34;;;;;;;6.45;6.05;;;-1.00;99.90;;;;;;5035645;28;20701;-74
2021/12/24 03:36:01;;;;;;;5.97;5.57;;;-1.00;99.90;;;;;;5034852;28;20314;-74
2021/12/24 03:38:29;;;;;;;6.00;5.60;;;-1.00;99.90;;;;;;5036945;28;20253;-74
2021/12/24 03:40:56;;;;;;;5.68;5.28;;;-1.00;99.90;;;;;;5033815;28;20229;-74
2021/12/24 03:43:24;;;;;;;6.20;5.70;;;-1.00;99.90;;;;;;5040431;28;20241;-75
2021/12/24 03:46:00;;;;;;;6.57;5.70;;;-1.00;99.90;;;;;;5031341;28;20231;-73
2021/12/24 03:48:40;;;;;;;6.40;5.80;;;-0.90;99.90;;;;;;5033787;28;20555;-74
2021/12/24 03:51:24;;;;;;;6.13;5.72;;;-0.90;99.90;;;;;;5035658;28;20701;-74
2021/12/24 03:56:38;;;;;;;5.75;5.35;;;-0.90;99.90;;;;;;5035914;28;20358;-75
2021/12/24 03:59:07;;;;;;;5.72;5.28;;;-0.90;99.90;;;;;;5033097;28;20246;-74
2021/12/24 04:01:35;;;;;;;6.47;6.00;;;-0.90;99.90;;;;;;5051378;28;20227;-75
2021/12/24 04:04:03;;;;;;;5.05;4.65;;;-0.90;99.90;;;;;;5032977;28;20204;-73
2021/12/24 04:06:31;;;;;;;6.00;5.60;;;-0.90;99.90;;;;;;5035211;28;20289;-73
2021/12/24 04:08:58;;;;;;;5.95;5.55;;;-0.90;99.90;;;;;;5035607;28;20203;-73
2021/12/24 04:11:25;;;;;;;5.95;5.45;;;-1.00;99.90;;;;;;5033021;28;20223;-75
2021/12/24 04:13:52;;;;;;;5.88;5.47;;;-1.00;99.90;;;;;;5029753;28;20202;-74
2021/12/24 04:16:20;;;;;;;5.78;5.28;;;-1.00;99.90;;;;;;5036387;28;20230;-75
2021/12/24 04:18:55;;;;;;;6.28;5.78;;;-1.00;99.90;;;;;;5032591;28;20203;-72
2021/12/24 04:26:51;;;;;;;5.18;4.78;;;-1.00;99.90;;;;;;5040876;28;20221;-74
2021/12/24 04:29:19;;;;;;;5.97;5.57;;;-1.10;99.90;;;;;;5033084;28;20253;-74
2021/12/24 04:31:55;;;;;;;5.82;5.32;;;-1.00;99.90;;;;;;5038799;28;20223;-73
2021/12/24 04:34:26;;;;;;;5.93;5.53;;;-1.10;99.90;;;;;;5034416;28;20288;-74
2021/12/24 04:37:30;;;;;;;6.50;6.00;;;-1.00;99.90;;;;;;5033715;28;20721;-75
2021/12/24 04:39:54;;;;;;;5.40;4.97;;;-1.00;99.90;;;;;;5033324;28;20226;-75
2021/12/24 05:01:43;;;;;;;5.38;4.97;;;-0.90;99.90;;;;;;5037732;28;20304;-75
2021/12/24 05:04:13;;;;;;;5.88;5.38;;;-1.00;99.90;;;;;;5031219;28;20191;-75
2021/12/24 05:06:49;;;;;;;5.90;5.40;;;-1.00;99.90;;;;;;5034812;28;20353;-74
2021/12/24 05:09:21;;;;;;;6.07;5.68;;;-1.00;99.90;;;;;;5038569;28;20575;-75
2021/12/24 05:11:49;;;;;;;6.25;5.82;;;-1.00;99.90;;;;;;5039125;28;20302;-74
2021/12/24 05:14:16;;;;;;;5.97;5.53;;;-1.00;99.90;;;;;;5034478;28;20206;-74
2021/12/24 05:16:47;;;;;;;5.80;5.40;;;-1.00;99.90;;;;;;5032905;28;20223;-74
2021/12/24 05:22:02;;;;;;;5.45;5.15;;;-1.00;99.90;;;;;;5034680;28;20290;-75
2021/12/24 05:24:30;;;;;;;5.40;4.97;;;-1.00;99.90;;;;;;5039184;28;20198;-75
2021/12/24 05:27:00;;;;;;;6.07;5.57;;;-1.00;99.90;;;;;;5032476;28;20212;-71
2021/12/24 05:29:28;;;;;;;6.03;5.53;;;-0.90;99.90;;;;;;5037632;28;20199;-74
2021/12/24 05:31:55;;;;;;;5.88;5.47;;;-1.00;99.90;;;;;;5037210;28;20222;-74
2021/12/24 05:34:24;;;;;;;6.18;5.68;;;-0.90;99.90;;;;;;5036803;28;20468;-74
2021/12/24 05:36:52;;;;;;;6.43;5.93;;;-0.90;99.90;;;;;;5035167;28;20218;-75
2021/12/24 05:39:22;;;;;;;5.88;5.40;;;-0.90;99.90;;;;;;5031561;28;20220;-74
2021/12/24 05:41:50;;;;;;;5.85;5.43;;;-0.90;99.90;;;;;;5034021;28;20226;-75
2021/12/24 05:44:17;;;;;;;6.18;5.78;;;-0.90;99.90;;;;;;5035029;28;20261;-74
2021/12/24 05:46:46;;;;;;;5.47;5.07;;;-0.90;99.90;;;;;;5033832;28;20254;-74
2021/12/24 05:49:14;;;;;;;5.93;5.53;;;-0.90;99.90;;;;;;5051878;28;20202;-74
2021/12/24 05:51:42;;;;;;;6.32;5.80;;;-0.90;99.90;;;;;;5035031;28;20227;-75
2021/12/24 05:54:09;;;;;;;5.60;5.20;;;-0.90;99.90;;;;;;5035283;28;20580;-75
2021/12/24 05:56:36;;;;;;;5.75;5.30;;;-1.00;99.90;;;;;;5035517;28;20265;-74
2021/12/24 05:59:04;;;;;;;6.03;5.63;;;-0.90;99.90;;;;;;5031661;28;20250;-75
2021/12/24 06:01:31;;;;;;;6.40;5.90;;;-1.00;99.90;;;;;;5036400;28;20270;-75
2021/12/24 06:03:58;;;;;;;5.90;5.50;;;-1.00;99.90;;;;;;5036373;28;20206;-75
2021/12/24 06:06:25;;;;;;;6.20;5.60;;;-1.00;99.90;;;;;;5040279;28;20231;-76
2021/12/24 06:08:54;;;;;;;5.75;5.32;;;-1.00;99.90;;;;;;5043992;28;20207;-74
2021/12/24 06:11:21;;;;;;;5.72;5.32;;;-1.00;99.90;;;;;;5037378;28;20231;-74
2021/12/24 06:13:52;;;;;;;5.35;4.95;;;-1.00;99.90;;;;;;5037066;28;20631;-75
2021/12/24 06:16:20;;;;;;;5.93;5.53;;;-0.90;99.90;;;;;;5034684;28;20239;-76
2021/12/24 06:18:47;;;;;;;5.93;5.53;;;-0.90;99.90;;;;;;5035575;28;20286;-74
2021/12/24 06:21:15;;;;;;;5.90;5.40;;;-0.90;99.90;;;;;;5029010;28;20238;-74
2021/12/24 06:23:43;;;;;;;6.50;6.00;;;-0.80;99.90;;;;;;5029249;28;20205;-75
2021/12/24 06:26:12;;;;;;;6.22;5.70;;;-0.80;99.90;;;;;;5030453;28;20717;-72
2021/12/24 06:28:39;;;;;;;5.10;4.70;;;-0.80;99.90;;;;;;5032014;28;20686;-74
2021/12/24 06:31:07;;;;;;;5.82;5.43;;;-0.80;99.90;;;;;;5031014;28;20448;-74
2021/12/24 06:33:34;;;;;;;5.78;5.32;;;-0.80;99.90;;;;;;5039698;28;20207;-74
2021/12/24 06:36:01;;;;;;;6.15;5.70;;;-0.80;99.90;;;;;;5034485;28;20207;-75
2021/12/24 06:38:28;;;;;;;7.13;6.45;;;-0.80;99.90;;;;;;5031151;28;20191;-74
2021/12/24 06:40:56;;;;;;;6.90;6.40;;;-0.80;99.90;;;;;;5040600;28;20199;-77
2021/12/24 06:43:24;;;;;;;7.30;6.60;;;-0.90;99.90;;;;;;5040502;28;20222;-75
2021/12/24 06:45:51;;;;;;;6.38;5.78;;;-1.00;99.90;;;;;;5026713;28;20432;-73
2021/12/24 06:48:19;;;;;;;6.03;5.63;;;-1.00;99.90;;;;;;5029087;28;20223;-74
2021/12/24 06:50:46;;;;;;;6.20;5.80;;;-1.10;99.90;;;;;;5031166;28;20243;-73
2021/12/24 06:53:13;;;;;;;7.07;6.47;;;-1.00;99.90;;;;;;5034291;28;20215;-75
2021/12/24 06:55:40;;;;;;;6.88;6.25;;;-0.90;99.90;;;;;;5037313;28;20738;-75
2021/12/24 06:58:08;;;;;;;7.60;6.97;;;-0.90;99.90;;;;;;5031773;28;20219;-75
2021/12/24 07:00:37;;;;;;;7.95;7.18;;;-0.90;99.90;;;;;;5032862;28;20224;-76
2021/12/24 07:03:04;;;;;;;8.20;7.50;;;-1.00;99.90;;;;;;5028712;28;20221;-74
2021/12/24 07:05:31;;;;;;;7.15;6.45;;;-1.00;99.90;;;;;;5032284;28;20253;-73
2021/12/24 07:07:58;;;;;;;7.00;6.40;;;-1.10;99.90;;;;;;5039312;28;20218;-75
2021/12/24 07:10:26;;;;;;;7.13;6.57;;;-1.00;99.90;;;;;;5035336;28;20238;-76
2021/12/24 07:12:53;;;;;;;7.28;6.55;;;-1.00;99.90;;;;;;5029713;28;20231;-74
2021/12/24 07:15:20;;;;;;;6.97;6.00;;;-0.90;99.90;;;;;;5034462;28;20678;-72
2021/12/24 07:17:49;;;;;;;9.07;8.27;;;-0.70;99.90;;;;;;5026771;28;20228;-74
2021/12/24 07:20:17;;;;;;;9.73;8.05;;;-0.80;99.90;;;;;;5028439;28;20268;-73
2021/12/24 07:22:44;;;;;;;8.07;7.38;;;-0.80;99.90;;;;;;5026414;28;20239;-75
2021/12/24 07:25:12;;;;;;;7.72;7.03;;;-0.80;99.90;;;;;;5033093;28;20277;-72
2021/12/24 07:27:39;;;;;;;8.98;8.13;;;-0.80;99.90;;;;;;5032034;28;20227;-75
2021/12/24 07:30:10;;;;;;;7.00;6.40;;;-0.70;99.90;;;;;;5029988;28;20476;-74
2021/12/24 07:32:37;;;;;;;7.95;7.25;;;-0.70;99.90;;;;;;5031887;28;20223;-74
2021/12/24 07:35:07;;;;;;;7.55;6.95;;;-0.60;99.90;;;;;;5048066;28;20740;-75
2021/12/24 07:37:35;;;;;;;9.50;8.20;;;-0.70;99.90;;;;;;5032051;28;20226;-75
2021/12/24 07:40:03;;;;;;;7.75;7.05;;;-0.70;99.90;;;;;;5025865;28;20740;-75
2021/12/24 07:42:30;;;;;;;7.78;7.07;;;-0.50;99.90;;;;;;5026691;28;20234;-75
2021/12/24 07:44:58;;;;;;;7.97;7.18;;;-0.40;99.90;;;;;;5026341;28;20202;-74
2021/12/24 07:47:32;;;;;;;8.18;7.47;;;-0.30;99.90;;;;;;5025849;28;20219;-75
2021/12/24 07:50:03;;;;;;;7.10;6.50;;;-0.30;99.90;;;;;;5028050;28;20391;-76
2021/12/24 07:52:31;;;;;;;10.93;8.45;;;-0.20;99.90;;;;;;5032428;28;20681;-75
2021/12/24 07:54:59;;;;;;;9.43;8.52;;;-0.30;99.90;;;;;;5029873;28;20756;-75
2021/12/24 07:57:26;;;;;;;9.02;8.13;;;-0.30;99.90;;;;;;5029276;28;20219;-75
2021/12/24 07:59:53;;;;;;;10.38;9.20;;;-0.40;99.90;;;;;;5031948;28;20215;-76
2021/12/24 08:02:25;;;;;;;13.55;10.07;;;-0.30;99.90;;;;;;5030009;28;20235;-75
2021/12/24 08:04:53;;;;;;;12.00;10.60;;;-0.40;99.90;;;;;;5027753;28;20299;-75
2021/12/24 08:07:21;;;;;;;10.15;8.88;;;-0.50;99.90;;;;;;5026639;28;20273;-75
2021/12/24 08:09:49;;;;;;;9.60;8.60;;;-0.50;99.90;;;;;;5030006;28;20219;-75
2021/12/24 08:12:17;;;;;;;9.10;8.30;;;-0.60;99.90;;;;;;5034164;28;20219;-74
2021/12/24 08:14:45;;;;;;;10.15;9.15;;;-0.60;99.90;;;;;;5028046;28;20202;-75
2021/12/24 08:17:12;;;;;;;10.00;8.85;;;-0.70;99.90;;;;;;5032299;28;20857;-74
2021/12/24 08:19:40;;;;;;;9.63;8.73;;;-0.70;99.90;;;;;;5032287;28;20233;-76
2021/12/24 08:22:07;;;;;;;10.07;9.07;;;-0.70;99.90;;;;;;5027185;28;20289;-74
2021/12/24 08:24:34;;;;;;;11.20;9.07;;;-0.60;99.90;;;;;;5026956;28;20713;-75
2021/12/24 08:27:03;;;;;;;10.68;9.60;;;-0.70;99.90;;;;;;5042839;28;20203;-78
2021/12/24 08:29:30;;;;;;;10.20;9.20;;;-0.70;99.90;;;;;;5038177;28;20453;-74
2021/12/24 08:31:57;;;;;;;9.30;8.48;;;-0.80;99.90;;;;;;5028148;28;20222;-74
2021/12/24 08:34:24;;;;;;;10.23;9.23;;;-0.70;99.90;;;;;;5030986;28;20538;-74
2021/12/24 08:36:54;;;;;;;10.25;9.32;;;-0.60;99.90;;;;;;5028624;28;20246;-73
2021/12/24 08:39:22;;;;;;;10.30;9.30;;;-0.60;99.90;;;;;;5028813;28;20207;-74
2021/12/24 08:41:54;;;;;;;9.35;8.50;;;-0.60;99.90;;;;;;5027171;28;20598;-74
2021/12/24 08:44:27;;;;;;;9.60;8.70;;;-0.50;99.90;;;;;;5028189;28;20203;-75
2021/12/24 08:46:55;;;;;;;10.32;9.32;;;-0.50;99.90;;;;;;5031651;28;20561;-75
2021/12/24 08:49:23;;;;;;;9.55;8.55;;;-0.50;99.90;;;;;;5028902;28;20200;-74
2021/12/24 08:51:50;;;;;;;9.68;8.68;;;-0.40;99.90;;;;;;5028993;28;20234;-73
2021/12/24 08:54:18;;;;;;;11.07;9.98;;;-0.40;99.90;;;;;;5028641;28;20257;-74
2021/12/24 08:56:46;;;;;;;10.35;9.32;;;-0.30;99.90;;;;;;5029250;28;20223;-72
2021/12/24 08:59:13;;;;;;;10.85;9.85;;;-0.30;99.90;;;;;;5032209;28;20237;-73
2021/12/24 09:01:43;;;;;;;12.00;9.23;;;-0.30;99.90;;;;;;5026055;28;20223;-73
2021/12/24 09:04:10;;;;;;;11.23;9.20;;;-0.20;99.90;;;;;;5027075;28;20283;-76
2021/12/24 09:06:37;;;;;;;11.65;10.43;;;-0.20;99.90;;;;;;5027826;28;20215;-73
2021/12/24 09:09:06;;;;;;;11.30;10.20;;;-0.20;99.90;;;;;;5025171;28;20195;-73
2021/12/24 09:11:33;;;;;;;10.63;9.52;;;-0.20;99.90;;;;;;5028518;28;20326;-74
2021/12/24 09:14:00;;;;;;;10.48;9.48;;;-0.10;99.90;;;;;;5027602;28;20203;-75
2021/12/24 09:16:28;;;;;;;11.27;9.73;;;-0.10;99.90;;;;;;5026873;28;20523;-73
2021/12/24 09:19:01;;;;;;;11.57;10.00;;;-0.10;99.90;;;;;;5035986;28;20194;-71
2021/12/24 09:21:29;;;;;;;53.70;32.70;;;-0.20;99.90;;;;;;5044226;28;20246;-72
2021/12/24 09:23:58;;;;;;;31.17;20.13;;;-0.20;99.90;;;;;;5032405;28;20206;-73
2021/12/24 09:26:28;;;;;;;24.80;16.52;;;-0.10;99.90;;;;;;5025290;28;20203;-72
2021/12/24 09:28:56;;;;;;;19.30;13.98;;;0.10;99.90;;;;;;5024731;28;20222;-73
2021/12/24 09:31:23;;;;;;;17.90;13.18;;;0.20;99.90;;;;;;5034980;28;20218;-74
2021/12/24 09:33:50;;;;;;;14.18;12.40;;;0.40;99.90;;;;;;5025937;28;20629;-73
2021/12/24 09:36:24;;;;;;;13.32;11.07;;;0.40;99.90;;;;;;5025740;28;20293;-74
2021/12/24 09:38:51;;;;;;;11.98;10.68;;;0.40;99.90;;;;;;5031702;28;20318;-74
2021/12/24 09:41:18;;;;;;;12.77;11.23;;;0.40;99.90;;;;;;5029083;28;20229;-74
2021/12/24 09:43:45;;;;;;;12.65;11.45;;;0.40;99.90;;;;;;5024745;28;20653;-74
2021/12/24 09:46:12;;;;;;;12.02;10.93;;;0.30;99.90;;;;;;5048101;23;20227;-76
2021/12/24 09:48:40;;;;;;;10.40;9.35;;;0.30;99.90;;;;;;5026701;28;20546;-76
2021/12/24 09:51:08;;;;;;;10.98;9.88;;;0.30;99.90;;;;;;5038011;28;20222;-75
2021/12/24 09:53:37;;;;;;;9.93;8.93;;;0.30;99.90;;;;;;5033709;28;20219;-81
2021/12/24 09:56:04;;;;;;;11.05;9.95;;;0.40;99.90;;;;;;5033853;28;20590;-77
2021/12/24 09:58:32;;;;;;;9.88;8.98;;;0.50;99.90;;;;;;5036546;28;20219;-76
2021/12/24 10:00:59;;;;;;;10.73;9.65;;;0.70;99.90;;;;;;5035998;28;20203;-76
2021/12/24 10:03:31;;;;;;;11.60;10.55;;;0.90;99.90;;;;;;5036885;28;20254;-77
2021/12/24 10:05:59;;;;;;;10.95;9.85;;;1.00;99.90;;;;;;5040377;28;20230;-77
2021/12/24 10:08:28;;;;;;;11.18;9.02;;;1.10;99.90;;;;;;5035722;28;20220;-77
2021/12/24 10:11:02;;;;;;;10.77;9.80;;;1.10;99.90;;;;;;5035345;28;20629;-77
2021/12/24 10:13:32;;;;;;;11.93;10.55;;;1.20;99.90;;;;;;5041549;28;20221;-77
2021/12/24 10:16:02;;;;;;;11.25;9.60;;;1.20;99.90;;;;;;5032040;28;20262;-76
2021/12/24 10:18:35;;;;;;;15.95;12.45;;;1.00;99.90;;;;;;5041961;28;20219;-81
2021/12/24 10:21:07;;;;;;;11.07;10.02;;;0.90;99.90;;;;;;5041425;28;20652;-78
2021/12/24 10:23:42;;;;;;;12.10;10.07;;;0.80;99.90;;;;;;5037954;28;20440;-77
2021/12/24 10:26:17;;;;;;;12.35;9.98;;;0.70;99.90;;;;;;5034964;28;20697;-77
2021/12/24 10:28:56;;;;;;;10.50;9.45;;;0.80;99.90;;;;;;5032630;28;20222;-78
2021/12/24 10:31:28;;;;;;;11.57;10.40;;;0.90;99.90;;;;;;5041752;28;20727;-78
2021/12/24 10:34:13;;;;;;;10.60;9.50;;;1.00;99.90;;;;;;5038679;28;20478;-76
2021/12/24 10:37:08;;;;;;;10.68;9.60;;;1.20;99.90;;;;;;5042802;28;20227;-78
2021/12/24 10:39:39;;;;;;;11.63;10.10;;;1.40;99.90;;;;;;5039104;28;20265;-75
2021/12/24 10:42:12;;;;;;;12.30;10.77;;;1.40;99.90;;;;;;5035065;28;20207;-76
2021/12/24 10:44:41;;;;;;;15.88;12.60;;;1.40;99.90;;;;;;5038067;28;20329;-80
2021/12/24 10:47:12;;;;;;;14.45;12.48;;;1.30;99.90;;;;;;5039751;28;20261;-77
2021/12/24 10:55:36;;;;;;;13.57;12.18;;;1.20;99.90;;;;;;5046564;28;20238;-77
2021/12/24 10:58:06;;;;;;;10.98;9.88;;;1.20;99.90;;;;;;5043144;28;20629;-79
2021/12/24 11:00:38;;;;;;;10.45;9.45;;;1.20;99.90;;;;;;5048978;28;20195;-76
2021/12/24 11:03:08;;;;;;;10.43;9.43;;;1.20;99.90;;;;;;5045582;28;20221;-74
2021/12/24 11:05:39;;;;;;;9.93;8.95;;;1.30;99.90;;;;;;5035509;28;21139;-77
2021/12/24 11:08:08;;;;;;;12.15;10.82;;;1.40;99.90;;;;;;5041726;28;20245;-77
2021/12/24 11:10:38;;;;;;;11.80;10.70;;;1.60;99.90;;;;;;5042072;28;20226;-79
2021/12/24 11:13:10;;;;;;;11.05;9.95;;;1.80;99.90;;;;;;5042339;28;20198;-77
2021/12/24 11:15:40;;;;;;;9.38;8.57;;;1.90;99.90;;;;;;5034505;28;20310;-76
2021/12/24 11:18:09;;;;;;;9.20;8.25;;;2.10;99.90;;;;;;5041164;28;20273;-75
2021/12/24 11:20:37;;;;;;;10.10;8.27;;;2.20;99.90;;;;;;5037092;28;20540;-77
2021/12/24 11:23:07;;;;;;;10.35;9.10;;;2.30;99.90;;;;;;5041774;28;20313;-77
2021/12/24 11:25:38;;;;;;;9.82;8.82;;;2.50;99.90;;;;;;5043483;28;20215;-76
2021/12/24 11:28:08;;;;;;;9.57;8.63;;;2.70;99.90;;;;;;5036713;28;20195;-76
2021/12/24 11:30:39;;;;;;;10.48;9.23;;;2.70;99.90;;;;;;5035023;28;20211;-77
2021/12/24 11:33:06;;;;;;;9.02;8.13;;;2.80;99.90;;;;;;5039517;28;20654;-76
2021/12/24 11:35:34;;;;;;;10.35;9.35;;;2.80;99.90;;;;;;5037235;28;20231;-77
2021/12/24 11:38:02;;;;;;;10.02;8.95;;;2.80;99.90;;;;;;5040378;28;20203;-77
2021/12/24 11:40:30;;;;;;;10.52;9.52;;;2.70;99.90;;;;;;5037323;28;20206;-76
2021/12/24 11:43:00;;;;;;;10.57;9.48;;;2.60;99.90;;;;;;5036821;28;20219;-78
2021/12/24 11:45:29;;;;;;;9.98;8.95;;;2.70;99.90;;;;;;5040344;28;20231;-79
2021/12/24 11:47:57;;;;;;;11.57;10.32;;;2.90;99.90;;;;;;5030780;28;20425;-74
2021/12/24 11:50:26;;;;;;;11.80;10.57;;;3.20;99.90;;;;;;5043069;28;20207;-76
2021/12/24 11:52:57;;;;;;;10.65;9.50;;;3.50;99.90;;;;;;5038722;28;20199;-79
2021/12/24 11:55:26;;;;;;;11.23;9.82;;;3.60;99.90;;;;;;5036603;28;20264;-76
2021/12/24 11:57:59;;;;;;;10.73;9.60;;;3.60;99.90;;;;;;5033202;28;20203;-75
2021/12/24 12:00:36;;;;;;;11.65;10.60;;;3.50;99.90;;;;;;5035409;28;20337;-75
2021/12/24 12:03:03;;;;;;;11.85;9.90;;;3.30;99.90;;;;;;5029340;28;20226;-76
2021/12/24 12:05:33;;;;;;;11.27;9.70;;;3.20;99.90;;;;;;5035825;28;20215;-73
2021/12/24 12:08:41;;;;;;;10.05;9.15;;;3.10;99.90;;;;;;5036189;28;20203;-79
2021/12/24 12:11:25;;;;;;;11.77;10.68;;;3.20;99.90;;;;;;5032759;28;20311;-75
2021/12/24 12:13:57;;;;;;;10.73;9.68;;;3.20;99.90;;;;;;5037597;28;20194;-76
2021/12/24 12:16:28;;;;;;;11.15;9.40;;;3.20;99.90;;;;;;5035777;28;20579;-76
2021/12/24 12:19:15;;;;;;;10.38;9.40;;;3.10;99.90;;;;;;5039279;28;20195;-77
2021/12/24 12:21:58;;;;;;;12.38;10.13;;;2.90;99.90;;;;;;5044475;28;20206;-77
2021/12/24 12:27:30;;;;;;;12.65;10.48;;;2.90;99.90;;;;;;5043126;28;20278;-76
2021/12/24 12:29:57;;;;;;;11.23;9.90;;;2.90;99.90;;;;;;5042466;28;20253;-78
2021/12/24 12:32:42;;;;;;;10.80;9.45;;;2.90;99.90;;;;;;5052659;28;20196;-78
2021/12/24 12:35:09;;;;;;;10.65;9.57;;;2.80;99.90;;;;;;5047840;28;20626;-79
2021/12/24 12:37:46;;;;;;;12.75;10.18;;;2.80;99.90;;;;;;5039536;28;20246;-79
2021/12/24 12:40:33;;;;;;;12.00;10.75;;;2.70;99.90;;;;;;5045115;28;20661;-78
2021/12/24 12:43:08;;;;;;;12.18;10.70;;;2.70;99.90;;;;;;5044676;28;20227;-77
2021/12/24 12:46:01;;;;;;;12.35;11.13;;;2.80;99.90;;;;;;5041240;28;20221;-78
2021/12/24 12:48:48;;;;;;;12.23;10.23;;;2.80;99.90;;;;;;5039287;28;20196;-78
2021/12/24 12:51:15;;;;;;;14.38;12.07;;;2.90;99.90;;;;;;5034712;28;20196;-77
2021/12/24 12:53:42;;;;;;;13.52;12.13;;;3.00;99.90;;;;;;5044452;28;20420;-80
2021/12/24 12:56:18;;;;;;;13.45;12.05;;;3.00;99.90;;;;;;5042054;28;20249;-76
2021/12/24 12:58:47;;;;;;;13.52;11.15;;;3.00;99.90;;;;;;5042688;28;20194;-75
2021/12/24 13:01:17;;;;;;;12.98;11.57;;;3.00;99.90;;;;;;5037327;28;20282;-76
2021/12/24 13:04:16;;;;;;;14.30;12.73;;;3.00;99.90;;;;;;5035573;28;20211;-79
2021/12/24 13:06:57;;;;;;;12.23;10.73;;;3.10;99.90;;;;;;5036387;28;20219;-78
2021/12/24 13:09:33;;;;;;;12.40;10.85;;;3.10;99.90;;;;;;5039812;28;20195;-77
2021/12/24 13:12:03;;;;;;;11.63;10.13;;;3.10;99.90;;;;;;5034333;28;20271;-77
2021/12/24 13:14:36;;;;;;;10.00;9.00;;;3.10;99.90;;;;;;5045191;28;20550;-78
2021/12/24 13:17:18;;;;;;;12.27;10.23;;;3.20;99.90;;;;;;5034897;28;20784;-77
2021/12/24 13:22:42;;;;;;;12.60;11.07;;;3.10;99.90;;;;;;4962219;28;20287;-77
2021/12/24 13:25:13;;;;;;;11.95;10.73;;;2.90;99.90;;;;;;5023191;28;20616;-77
2021/12/24 13:27:44;;;;;;;11.52;9.60;;;2.80;99.90;;;;;;5034857;28;20223;-81
2021/12/24 13:30:15;;;;;;;14.88;10.52;;;2.80;99.90;;;;;;5039834;28;20202;-76
2021/12/24 13:32:44;;;;;;;10.55;9.45;;;2.80;99.90;;;;;;5040172;28;20823;-75
2021/12/24 13:35:13;;;;;;;10.52;9.48;;;2.80;99.90;;;;;;5037013;28;20314;-76
2021/12/24 13:37:45;;;;;;;11.60;10.15;;;2.80;99.90;;;;;;5037029;28;20219;-78
2021/12/24 13:40:15;;;;;;;10.98;9.70;;;2.80;99.90;;;;;;5035567;28;20249;-78
2021/12/24 13:42:47;;;;;;;11.15;9.85;;;2.70;99.90;;;;;;5035043;28;20275;-78
2021/12/24 13:45:14;;;;;;;9.98;8.77;;;2.70;99.90;;;;;;5035441;28;20234;-77
2021/12/24 13:56:05;;;;;;;11.63;9.13;;;2.60;99.90;;;;;;5039328;28;20582;-81
2021/12/24 13:58:33;;;;;;;11.00;9.40;;;2.60;99.90;;;;;;5033837;28;20250;-76
2021/12/24 14:01:02;;;;;;;8.38;7.57;;;2.60;99.90;;;;;;5036497;28;20759;-80
2021/12/24 14:03:31;;;;;;;10.02;8.82;;;2.70;99.90;;;;;;5045241;28;20220;-78
2021/12/24 14:06:02;;;;;;;28.13;17.25;;;2.70;99.90;;;;;;5046373;28;20211;-78
2021/12/24 14:08:32;;;;;;;71.93;34.80;;;2.70;99.90;;;;;;5048970;28;20541;-78
2021/12/24 14:11:10;;;;;;;52.85;28.98;;;2.70;99.90;;;;;;5042435;28;20203;-78
2021/12/24 14:13:44;;;;;;;39.83;22.95;;;2.70;99.90;;;;;;5045020;28;20199;-78
2021/12/24 14:16:29;;;;;;;32.33;19.05;;;2.70;99.90;;;;;;5040410;28;20746;-78
2021/12/24 14:19:12;;;;;;;24.00;15.18;;;2.70;99.90;;;;;;5041836;28;20261;-78
2021/12/24 14:21:47;;;;;;;20.52;13.85;;;2.70;99.90;;;;;;5036983;28;20226;-77
2021/12/24 14:24:20;;;;;;;19.73;13.50;;;2.60;99.90;;;;;;5038542;28;20256;-78
2021/12/24 14:26:51;;;;;;;14.00;11.38;;;2.60;99.90;;;;;;5047881;28;20227;-78
2021/12/24 14:29:30;;;;;;;15.43;11.60;;;2.50;99.90;;;;;;5046969;28;20234;-78
2021/12/24 14:32:00;;;;;;;12.65;10.68;;;2.40;99.90;;;;;;5044319;28;20214;-78
2021/12/24 14:34:39;;;;;;;10.63;9.20;;;2.40;99.90;;;;;;5042179;28;20221;-79
2021/12/24 14:37:10;;;;;;;11.00;8.98;;;2.40;99.90;;;;;;5051748;28;20219;-77